DW1289 Weather Reports


Display with metric or nautical units.
time (UTC)temp
F
wind
direction
speed
MPH
gust
MPH
rain 1hr
in
rain 24hr
in
rain mn
in
humidity
%
barometer
mb
20240717215036 87 248 3.0 8.0 0.00 0.39 0.39 65 1012.5
20240717214016 87 248 5.0 11.0 0.00 0.39 0.39 65 1012.5
20240717213016 88 248 4.0 8.0 0.00 0.39 0.39 63 1012.7
20240717212016 87 248 5.0 9.0 0.00 0.39 0.39 66 1012.6
20240717211036 87 248 4.0 11.0 0.00 0.39 0.39 66 1012.6
20240717210016 87 248 5.0 10.0 0.00 0.39 0.39 70 1012.6
20240717205016 85 225 4.0 10.0 0.00 0.39 0.39 68 1012.8
20240717204016 87 248 4.0 10.0 0.00 0.39 0.39 66 1012.9
20240717203036 86 248 4.0 10.0 0.00 0.39 0.39 66 1013.1
20240717202016 87 248 4.0 8.0 0.00 0.39 0.39 68 1013.3
20240717201056 87 248 4.0 10.0 0.00 0.39 0.39 69 1013.5
20240717200016 86 248 4.0 8.0 0.00 0.39 0.39 68 1013.4
20240717195017 85 248 3.0 9.0 0.00 0.39 0.39 68 1013.5
20240717194016 86 248 4.0 10.0 0.00 0.39 0.39 70 1013.8
20240717193016 85 248 5.0 11.0 0.00 0.39 0.39 72 1014.0
20240717192016 86 248 4.0 11.0 0.00 0.39 0.39 71 1013.9
20240717191016 86 248 5.0 11.0 0.00 0.39 0.39 69 1014.0
20240717190016 85 248 4.0 9.0 0.00 0.39 0.39 69 1014.1
20240717185016 85 248 5.0 11.0 0.00 0.39 0.39 70 1014.1
20240717184016 85 248 4.0 11.0 0.00 0.39 0.39 71 1014.1
20240717183016 83 248 4.0 10.0 0.00 0.39 0.39 74 1014.2
20240717182016 84 248 5.0 11.0 0.00 0.39 0.39 72 1014.4
20240717181016 84 248 4.0 10.0 0.00 0.39 0.39 73 1014.6
20240717180016 83 248 5.0 11.0 0.00 0.39 0.39 72 1014.4
20240717175016 83 225 5.0 11.0 0.00 0.39 0.39 73 1014.5
20240717174016 83 248 4.0 9.0 0.00 0.39 0.39 78 1014.7
20240717173016 82 248 4.0 8.0 0.00 0.39 0.39 76 1014.9
20240717172016 82 248 3.0 10.0 0.00 0.39 0.39 78 1015.2
20240717171015 81 248 4.0 9.0 0.00 0.39 0.39 78 1015.0
20240717170016 81 248 4.0 9.0 0.00 0.39 0.39 78 1014.9
20240717165016 80 248 4.0 11.0 0.00 0.39 0.39 78 1014.9
20240717164016 82 248 3.0 8.0 0.00 0.39 0.39 77 1014.8
20240717163016 82 248 4.0 10.0 0.00 0.39 0.39 76 1014.8
20240717162016 82 248 4.0 9.0 0.00 0.39 0.39 80 1014.5
20240717161016 81 248 3.0 7.0 0.00 0.39 0.39 79 1014.5
20240717160016 80 248 5.0 9.0 0.00 0.39 0.39 80 1014.5
20240717155016 81 248 5.0 10.0 0.00 0.39 0.39 79 1014.6
20240717154016 80 248 2.0 6.0 0.00 0.39 0.39 82 1014.4
20240717153157 81 248 3.0 7.0 0.00 0.39 0.39 81 1014.7
20240717152016 80 248 3.0 9.0 0.00 0.39 0.39 83 1014.7
20240717151016 79 248 2.0 7.0 0.00 0.39 0.39 86 1014.6
20240717150016 77 248 2.0 5.0 0.00 0.39 0.39 88 1014.3
20240717145016 76 248 2.0 4.0 0.00 0.39 0.39 90 1014.5
20240717144016 76 248 2.0 6.0 0.00 0.39 0.39 91 1014.3
20240717143036 76 248 1.0 3.0 0.00 0.39 0.39 91 1014.3
20240717142016 76 248 1.0 3.0 0.00 0.39 0.39 91 1013.9
20240717141016 75 225 1.0 3.0 0.00 0.39 0.39 92 1013.7
20240717140016 75 248 1.0 3.0 0.00 0.39 0.39 94 1013.8
20240717135016 74 248 1.0 4.0 0.00 0.39 0.39 93 1014.2
20240717134016 74 0.0 2.0 0.00 0.39 0.39 94 1014.3
20240717133016 74 248 1.0 6.0 0.00 0.39 0.39 94 1014.3
20240717132015 74 248 1.0 3.0 0.00 0.39 0.39 94 1014.1
20240717131016 74 248 1.0 3.0 0.00 0.39 0.39 94 1014.1
20240717130016 74 248 1.0 2.0 0.00 0.39 0.39 95 1014.2
20240717125015 74 0.0 2.0 0.00 0.39 0.39 95 1014.2
20240717124015 74 248 1.0 3.0 0.00 0.39 0.39 95 1014.2
20240717123016 74 270 1.0 3.0 0.00 0.39 0.39 95 1014.0
20240717122016 74 0 1.0 3.0 0.00 0.39 0.39 95 1014.0
20240717121016 73 0.0 1.0 0.00 0.39 0.39 95 1013.7
20240717120016 73 0.0 2.0 0.01 0.40 0.39 95 1013.3
20240717115016 73 68 1.0 2.0 0.01 0.40 0.39 96 1013.1
20240717114016 73 45 1.0 2.0 0.01 0.40 0.39 96 1012.9
20240717113016 72 0.0 2.0 0.01 0.40 0.39 96 1012.9
20240717112016 72 0.0 2.0 0.01 0.40 0.39 96 1012.5
20240717111016 72 0.0 2.0 0.01 0.42 0.39 96 1012.6
20240717110015 72 0.0 1.0 0.01 0.42 0.38 96 1012.6
20240717105016 72 0.0 2.0 0.03 0.42 0.38 96 1012.5
20240717104016 72 0.0 2.0 0.05 0.42 0.38 96 1013.0
20240717103016 72 0.0 3.0 0.08 0.42 0.38 96 1012.9
20240717102016 72 248 2.0 4.0 0.10 0.42 0.38 95 1013.1
20240717101016 72 0.0 2.0 0.13 0.42 0.38 95 1013.1
20240717100015 72 225 1.0 3.0 0.14 0.41 0.37 95 1013.5
20240717095016 72 0.0 2.0 0.14 0.39 0.35 95 1013.5
20240717094036 72 225 2.0 3.0 0.14 0.37 0.33 95 1013.7
20240717093036 72 248 1.0 3.0 0.14 0.34 0.30 95 1013.6
20240717092036 72 248 2.0 5.0 0.15 0.32 0.28 94 1013.4
20240717091016 72 248 2.0 6.0 0.15 0.29 0.25 94 1013.2
20240717090016 72 248 2.0 4.0 0.14 0.27 0.23 94 1013.1
20240717085016 73 248 2.0 4.0 0.14 0.25 0.21 94 1013.0
20240717084015 73 248 2.0 3.0 0.13 0.23 0.19 94 1013.0
20240717083016 73 225 2.0 7.0 0.11 0.20 0.16 94 1013.0
20240717082016 73 248 2.0 6.0 0.10 0.17 0.13 94 1012.8
20240717081015 74 225 3.0 7.0 0.07 0.14 0.10 94 1012.5
20240717080016 74 248 3.0 8.0 0.07 0.13 0.09 95 1012.3
20240717075036 74 225 2.0 5.0 0.05 0.11 0.07 95 1012.2
20240717074015 74 225 2.0 3.0 0.05 0.10 0.06 95 1012.2
20240717073015 74 203 2.0 4.0 0.05 0.09 0.05 95 1012.2
20240717072036 74 248 1.0 5.0 0.03 0.07 0.03 95 1012.3
20240717071016 74 225 2.0 4.0 0.03 0.07 0.03 95 1012.3
20240717070015 74 248 2.0 4.0 0.02 0.06 0.02 94 1012.4
20240717065036 74 248 2.0 7.0 0.02 0.06 0.02 94 1012.3
20240717064016 75 248 2.0 5.0 0.01 0.05 0.01 94 1012.4
20240717063015 75 225 2.0 4.0 0.00 0.04 0.00 93 1012.4
20240717062015 75 248 2.0 4.0 0.00 0.04 0.00 93 1012.6
20240717061016 74 248 2.0 5.0 0.00 0.04 0.00 92 1012.5
20240717060015 74 248 3.0 8.0 0.00 0.04 0.00 92 1012.6
20240717055016 74 225 3.0 6.0 0.00 0.04 0.00 92 1012.7
20240717054016 74 225 2.0 4.0 0.00 0.04 0.00 92 1012.5
20240717053016 74 248 2.0 6.0 0.00 0.04 0.00 92 1012.6
20240717052015 75 225 2.0 5.0 0.00 0.04 0.00 91 1012.7
20240717051016 75 248 2.0 4.0 0.00 0.04 0.00 91 1012.5
20240717050015 75 225 1.0 3.0 0.00 0.04 0.00 90 1012.5
20240717045015 75 225 1.0 2.0 0.00 0.04 0.00 90 1012.4
20240717044036 75 248 2.0 4.0 0.00 0.04 0.00 89 1012.7
20240717043015 76 248 1.0 3.0 0.00 0.04 0.00 88 1012.5
20240717042015 76 225 2.0 5.0 0.00 0.04 0.00 87 1012.5
20240717041015 76 248 1.0 3.0 0.00 0.04 0.00 87 1012.5
20240717040016 76 248 1.0 4.0 0.00 0.04 0.04 86 1012.6
20240717035016 76 248 1.0 4.0 0.00 0.04 0.04 86 1012.9
20240717034016 77 180 2.0 5.0 0.00 0.04 0.04 84 1013.4
20240717033016 78 225 2.0 7.0 0.00 0.04 0.04 83 1013.3
20240717032016 77 248 1.0 5.0 0.00 0.04 0.04 83 1013.1
20240717031016 77 203 1.0 4.0 0.00 0.04 0.04 83 1012.8
20240717030016 78 248 3.0 8.0 0.00 0.04 0.04 82 1013.0
20240717025036 80 248 2.0 8.0 0.00 0.04 0.04 82 1013.2
20240717024016 81 270 1.0 4.0 0.00 0.04 0.04 82 1013.2
20240717023036 80 270 1.0 2.0 0.00 0.04 0.04 83 1013.0
20240717022016 80 0.0 0.0 0.00 0.04 0.04 82 1012.6
20240717021036 81 0.0 1.0 0.00 0.04 0.04 81 1012.5
20240717020016 81 0.0 1.0 0.00 0.04 0.04 79 1012.6
20240717015016 81 270 1.0 2.0 0.00 0.04 0.04 79 1012.7
20240717014016 81 270 1.0 2.0 0.00 0.04 0.04 78 1012.6
20240717013016 81 0.0 1.0 0.00 0.04 0.04 78 1012.3
20240717012016 82 0.0 0.0 0.00 0.04 0.04 77 1012.1
20240717011016 82 0.0 2.0 0.00 0.04 0.04 75 1012.1
20240717010016 82 270 1.0 2.0 0.00 0.04 0.04 76 1012.0
20240717005016 82 270 1.0 3.0 0.00 0.04 0.04 76 1011.9
20240717004016 83 270 1.0 2.0 0.00 0.04 0.04 75 1011.7
20240717003016 83 0.0 2.0 0.00 0.04 0.04 72 1011.4
20240717002016 83 248 1.0 2.0 0.00 0.04 0.04 72 1011.4
20240717001036 84 0.0 2.0 0.00 0.04 0.04 70 1011.3
20240717000036 84 248 1.0 4.0 0.00 0.04 0.04 68 1011.2
20240716235016 84 0.0 2.0 0.00 0.04 0.04 69 1011.2
20240716234036 84 90 1.0 2.0 0.00 0.04 0.04 67 1010.9
20240716233016 85 90 1.0 3.0 0.00 0.04 0.04 67 1010.8
20240716232016 85 203 1.0 3.0 0.00 0.04 0.04 67 1010.4
20240716231016 84 113 1.0 3.0 0.00 0.04 0.04 69 1010.3
20240716230016 85 0.0 2.0 0.00 0.04 0.04 66 1010.8
20240716225016 85 248 3.0 6.0 0.00 0.04 0.04 64 1011.1
20240716224016 85 248 3.0 6.0 0.00 0.04 0.04 65 1011.3
20240716223016 85 248 3.0 7.0 0.00 0.04 0.04 65 1011.5
20240716222016 85 248 2.0 6.0 0.00 0.04 0.04 66 1011.6
20240716221036 86 248 3.0 7.0 0.00 0.04 0.04 67 1011.8
20240716220016 86 248 4.0 11.0 0.00 0.04 0.04 68 1011.9